sensor_id;sensor_type;location;lat;lon;timestamp;P1;durP1;ratioP1;P2;durP2;ratioP2
7875;SDS011;69649;53.712;9.680;2023-05-31T00:00:25;8.50;;;5.00;;
7875;SDS011;69649;53.712;9.680;2023-05-31T00:02:51;6.93;;;4.53;;
7875;SDS011;69649;53.712;9.680;2023-05-31T00:05:17;6.17;;;4.93;;
7875;SDS011;69649;53.712;9.680;2023-05-31T00:07:42;7.27;;;4.33;;
7875;SDS011;69649;53.712;9.680;2023-05-31T00:10:08;7.13;;;4.17;;
7875;SDS011;69649;53.712;9.680;2023-05-31T00:12:34;4.47;;;3.90;;
7875;SDS011;69649;53.712;9.680;2023-05-31T00:15:00;5.70;;;4.20;;
7875;SDS011;69649;53.712;9.680;2023-05-31T00:17:26;6.03;;;4.10;;
7875;SDS011;69649;53.712;9.680;2023-05-31T00:19:52;5.77;;;4.47;;
7875;SDS011;69649;53.712;9.680;2023-05-31T00:22:17;8.50;;;4.17;;
7875;SDS011;69649;53.712;9.680;2023-05-31T00:24:43;5.33;;;4.53;;
7875;SDS011;69649;53.712;9.680;2023-05-31T00:27:09;5.57;;;3.97;;
7875;SDS011;69649;53.712;9.680;2023-05-31T00:29:35;5.43;;;4.07;;
7875;SDS011;69649;53.712;9.680;2023-05-31T00:32:01;4.93;;;4.23;;
7875;SDS011;69649;53.712;9.680;2023-05-31T00:34:27;5.57;;;4.80;;
7875;SDS011;69649;53.712;9.680;2023-05-31T00:36:52;7.57;;;3.87;;
7875;SDS011;69649;53.712;9.680;2023-05-31T00:39:18;6.13;;;3.87;;
7875;SDS011;69649;53.712;9.680;2023-05-31T00:41:44;4.60;;;4.10;;
7875;SDS011;69649;53.712;9.680;2023-05-31T00:44:10;4.73;;;4.23;;
7875;SDS011;69649;53.712;9.680;2023-05-31T00:46:36;5.63;;;4.07;;
7875;SDS011;69649;53.712;9.680;2023-05-31T00:49:04;5.80;;;3.73;;
7875;SDS011;69649;53.712;9.680;2023-05-31T00:51:31;3.83;;;3.13;;
7875;SDS011;69649;53.712;9.680;2023-05-31T00:53:59;6.40;;;3.97;;
7875;SDS011;69649;53.712;9.680;2023-05-31T00:56:26;3.50;;;3.20;;
7875;SDS011;69649;53.712;9.680;2023-05-31T00:58:52;4.57;;;3.97;;
7875;SDS011;69649;53.712;9.680;2023-05-31T01:01:20;4.20;;;3.57;;
7875;SDS011;69649;53.712;9.680;2023-05-31T01:03:50;5.47;;;3.77;;
7875;SDS011;69649;53.712;9.680;2023-05-31T01:06:16;4.03;;;3.50;;
7875;SDS011;69649;53.712;9.680;2023-05-31T01:08:41;3.43;;;3.10;;
7875;SDS011;69649;53.712;9.680;2023-05-31T01:11:29;4.03;;;3.63;;
7875;SDS011;69649;53.712;9.680;2023-05-31T01:14:24;3.47;;;3.13;;
7875;SDS011;69649;53.712;9.680;2023-05-31T01:17:12;3.10;;;2.83;;
7875;SDS011;69649;53.712;9.680;2023-05-31T01:19:53;4.80;;;3.63;;
7875;SDS011;69649;53.712;9.680;2023-05-31T01:25:21;3.70;;;3.40;;
7875;SDS011;69649;53.712;9.680;2023-05-31T01:27:46;4.20;;;3.80;;
7875;SDS011;69649;53.712;9.680;2023-05-31T01:30:12;5.37;;;3.20;;
7875;SDS011;69649;53.712;9.680;2023-05-31T01:32:42;3.60;;;3.30;;
7875;SDS011;69649;53.712;9.680;2023-05-31T01:35:08;5.67;;;3.67;;
7875;SDS011;69649;53.712;9.680;2023-05-31T01:37:34;6.90;;;3.07;;
7875;SDS011;69649;53.712;9.680;2023-05-31T01:40:00;3.70;;;3.40;;
7875;SDS011;69649;53.712;9.680;2023-05-31T01:42:27;4.20;;;3.30;;
7875;SDS011;69649;53.712;9.680;2023-05-31T01:44:53;4.27;;;3.20;;
7875;SDS011;69649;53.712;9.680;2023-05-31T01:47:20;4.67;;;3.53;;
7875;SDS011;69649;53.712;9.680;2023-05-31T01:49:47;4.10;;;3.43;;
7875;SDS011;69649;53.712;9.680;2023-05-31T01:52:14;3.77;;;3.40;;
7875;SDS011;69649;53.712;9.680;2023-05-31T01:54:42;5.50;;;3.57;;
7875;SDS011;69649;53.712;9.680;2023-05-31T01:57:08;4.63;;;3.90;;
7875;SDS011;69649;53.712;9.680;2023-05-31T01:59:35;3.57;;;3.20;;
7875;SDS011;69649;53.712;9.680;2023-05-31T02:02:03;4.47;;;4.00;;
7875;SDS011;69649;53.712;9.680;2023-05-31T02:04:30;3.73;;;3.30;;
7875;SDS011;69649;53.712;9.680;2023-05-31T02:06:56;3.77;;;3.10;;
7875;SDS011;69649;53.712;9.680;2023-05-31T02:09:23;4.07;;;3.10;;
7875;SDS011;69649;53.712;9.680;2023-05-31T02:11:49;4.67;;;4.27;;
7875;SDS011;69649;53.712;9.680;2023-05-31T02:14:15;4.97;;;3.70;;
7875;SDS011;69649;53.712;9.680;2023-05-31T02:16:41;5.10;;;3.80;;
7875;SDS011;69649;53.712;9.680;2023-05-31T02:19:06;4.97;;;3.47;;
7875;SDS011;69649;53.712;9.680;2023-05-31T02:21:33;4.10;;;3.63;;
7875;SDS011;69649;53.712;9.680;2023-05-31T02:24:00;5.57;;;3.73;;
7875;SDS011;69649;53.712;9.680;2023-05-31T02:26:26;5.30;;;3.83;;
7875;SDS011;69649;53.712;9.680;2023-05-31T02:28:52;3.90;;;3.50;;
7875;SDS011;69649;53.712;9.680;2023-05-31T02:31:18;3.93;;;3.53;;
7875;SDS011;69649;53.712;9.680;2023-05-31T02:33:44;4.70;;;3.97;;
7875;SDS011;69649;53.712;9.680;2023-05-31T02:36:10;5.73;;;3.90;;
7875;SDS011;69649;53.712;9.680;2023-05-31T02:38:36;4.20;;;3.60;;
7875;SDS011;69649;53.712;9.680;2023-05-31T02:41:03;4.10;;;3.30;;
7875;SDS011;69649;53.712;9.680;2023-05-31T02:43:29;4.17;;;3.33;;
7875;SDS011;69649;53.712;9.680;2023-05-31T02:45:56;4.27;;;3.53;;
7875;SDS011;69649;53.712;9.680;2023-05-31T02:48:22;3.77;;;3.43;;
7875;SDS011;69649;53.712;9.680;2023-05-31T02:50:48;4.97;;;3.83;;
7875;SDS011;69649;53.712;9.680;2023-05-31T02:53:14;4.33;;;3.53;;
7875;SDS011;69649;53.712;9.680;2023-05-31T02:55:40;4.37;;;3.83;;
7875;SDS011;69649;53.712;9.680;2023-05-31T02:58:06;3.93;;;3.47;;
7875;SDS011;69649;53.712;9.680;2023-05-31T03:00:32;4.03;;;3.60;;
7875;SDS011;69649;53.712;9.680;2023-05-31T03:02:58;4.20;;;3.80;;
7875;SDS011;69649;53.712;9.680;2023-05-31T03:05:24;4.00;;;3.60;;
7875;SDS011;69649;53.712;9.680;2023-05-31T03:07:51;4.90;;;4.07;;
7875;SDS011;69649;53.712;9.680;2023-05-31T03:10:17;5.47;;;3.90;;
7875;SDS011;69649;53.712;9.680;2023-05-31T03:12:43;4.40;;;3.50;;
7875;SDS011;69649;53.712;9.680;2023-05-31T03:15:09;4.20;;;3.30;;
7875;SDS011;69649;53.712;9.680;2023-05-31T03:17:35;5.13;;;3.90;;
7875;SDS011;69649;53.712;9.680;2023-05-31T03:20:03;4.53;;;3.20;;
7875;SDS011;69649;53.712;9.680;2023-05-31T03:22:31;4.83;;;3.63;;
7875;SDS011;69649;53.712;9.680;2023-05-31T03:24:57;4.07;;;3.37;;
7875;SDS011;69649;53.712;9.680;2023-05-31T03:27:23;3.83;;;3.43;;
7875;SDS011;69649;53.712;9.680;2023-05-31T03:29:48;4.93;;;3.93;;
7875;SDS011;69649;53.712;9.680;2023-05-31T03:32:14;8.30;;;4.40;;
7875;SDS011;69649;53.712;9.680;2023-05-31T03:34:40;4.93;;;3.40;;
7875;SDS011;69649;53.712;9.680;2023-05-31T03:37:06;5.97;;;3.77;;
7875;SDS011;69649;53.712;9.680;2023-05-31T03:39:32;4.53;;;3.83;;
7875;SDS011;69649;53.712;9.680;2023-05-31T03:41:58;3.53;;;3.10;;
7875;SDS011;69649;53.712;9.680;2023-05-31T03:44:25;4.47;;;4.07;;
7875;SDS011;69649;53.712;9.680;2023-05-31T03:46:51;6.43;;;4.30;;
7875;SDS011;69649;53.712;9.680;2023-05-31T03:49:17;6.47;;;4.50;;
7875;SDS011;69649;53.712;9.680;2023-05-31T03:51:42;4.67;;;3.60;;
7875;SDS011;69649;53.712;9.680;2023-05-31T03:54:08;4.13;;;3.70;;
7875;SDS011;69649;53.712;9.680;2023-05-31T03:56:34;4.00;;;3.60;;
7875;SDS011;69649;53.712;9.680;2023-05-31T03:59:00;5.37;;;3.90;;
7875;SDS011;69649;53.712;9.680;2023-05-31T04:01:26;6.33;;;4.27;;
7875;SDS011;69649;53.712;9.680;2023-05-31T04:03:52;5.50;;;4.07;;
7875;SDS011;69649;53.712;9.680;2023-05-31T04:06:18;6.27;;;4.43;;
7875;SDS011;69649;53.712;9.680;2023-05-31T04:08:43;6.53;;;4.47;;
7875;SDS011;69649;53.712;9.680;2023-05-31T04:11:10;6.30;;;3.77;;
7875;SDS011;69649;53.712;9.680;2023-05-31T04:13:36;5.87;;;3.80;;
7875;SDS011;69649;53.712;9.680;2023-05-31T04:16:01;4.43;;;3.67;;
7875;SDS011;69649;53.712;9.680;2023-05-31T04:18:28;4.37;;;3.70;;
7875;SDS011;69649;53.712;9.680;2023-05-31T04:20:54;6.23;;;4.37;;
7875;SDS011;69649;53.712;9.680;2023-05-31T04:23:19;4.17;;;3.47;;
7875;SDS011;69649;53.712;9.680;2023-05-31T04:25:46;5.93;;;3.83;;
7875;SDS011;69649;53.712;9.680;2023-05-31T04:28:13;6.23;;;4.07;;
7875;SDS011;69649;53.712;9.680;2023-05-31T04:30:40;6.60;;;4.03;;
7875;SDS011;69649;53.712;9.680;2023-05-31T04:33:06;6.07;;;4.10;;
7875;SDS011;69649;53.712;9.680;2023-05-31T04:35:32;4.80;;;3.80;;
7875;SDS011;69649;53.712;9.680;2023-05-31T04:37:59;5.10;;;3.67;;
7875;SDS011;69649;53.712;9.680;2023-05-31T04:40:27;7.27;;;4.47;;
7875;SDS011;69649;53.712;9.680;2023-05-31T04:42:52;4.23;;;3.50;;
7875;SDS011;69649;53.712;9.680;2023-05-31T04:45:18;5.67;;;3.83;;
7875;SDS011;69649;53.712;9.680;2023-05-31T04:47:44;7.70;;;4.40;;
7875;SDS011;69649;53.712;9.680;2023-05-31T04:50:11;7.00;;;4.93;;
7875;SDS011;69649;53.712;9.680;2023-05-31T04:52:37;7.40;;;4.70;;
7875;SDS011;69649;53.712;9.680;2023-05-31T04:55:05;6.53;;;4.30;;
7875;SDS011;69649;53.712;9.680;2023-05-31T04:57:32;10.47;;;5.40;;
7875;SDS011;69649;53.712;9.680;2023-05-31T04:59:58;7.60;;;4.97;;
7875;SDS011;69649;53.712;9.680;2023-05-31T05:02:25;7.53;;;4.80;;
7875;SDS011;69649;53.712;9.680;2023-05-31T05:04:52;6.63;;;4.40;;
7875;SDS011;69649;53.712;9.680;2023-05-31T05:07:18;4.93;;;3.93;;
7875;SDS011;69649;53.712;9.680;2023-05-31T05:09:46;7.57;;;5.10;;
7875;SDS011;69649;53.712;9.680;2023-05-31T05:12:12;5.73;;;4.70;;
7875;SDS011;69649;53.712;9.680;2023-05-31T05:14:38;8.50;;;5.07;;
7875;SDS011;69649;53.712;9.680;2023-05-31T05:17:04;8.10;;;4.73;;
7875;SDS011;69649;53.712;9.680;2023-05-31T05:19:30;6.23;;;4.50;;
7875;SDS011;69649;53.712;9.680;2023-05-31T05:21:56;6.17;;;4.07;;
7875;SDS011;69649;53.712;9.680;2023-05-31T05:24:22;6.77;;;4.33;;
7875;SDS011;69649;53.712;9.680;2023-05-31T05:26:48;8.97;;;4.20;;
7875;SDS011;69649;53.712;9.680;2023-05-31T05:29:13;9.23;;;4.77;;
7875;SDS011;69649;53.712;9.680;2023-05-31T05:31:39;6.40;;;4.10;;
7875;SDS011;69649;53.712;9.680;2023-05-31T05:34:05;8.50;;;5.63;;
7875;SDS011;69649;53.712;9.680;2023-05-31T05:36:31;7.77;;;4.63;;
7875;SDS011;69649;53.712;9.680;2023-05-31T05:38:57;6.80;;;4.63;;
7875;SDS011;69649;53.712;9.680;2023-05-31T05:41:25;9.40;;;6.97;;
7875;SDS011;69649;53.712;9.680;2023-05-31T05:43:51;10.50;;;4.70;;
7875;SDS011;69649;53.712;9.680;2023-05-31T05:46:17;8.60;;;5.13;;
7875;SDS011;69649;53.712;9.680;2023-05-31T05:48:42;8.67;;;4.90;;
7875;SDS011;69649;53.712;9.680;2023-05-31T05:51:09;6.20;;;4.03;;
7875;SDS011;69649;53.712;9.680;2023-05-31T05:53:35;8.50;;;4.93;;
7875;SDS011;69649;53.712;9.680;2023-05-31T05:56:02;5.60;;;4.27;;
7875;SDS011;69649;53.712;9.680;2023-05-31T05:58:28;4.70;;;4.07;;
7875;SDS011;69649;53.712;9.680;2023-05-31T06:00:53;5.53;;;4.80;;
7875;SDS011;69649;53.712;9.680;2023-05-31T06:03:19;6.03;;;3.87;;
7875;SDS011;69649;53.712;9.680;2023-05-31T06:05:45;6.37;;;4.10;;
7875;SDS011;69649;53.712;9.680;2023-05-31T06:08:11;5.13;;;3.50;;
7875;SDS011;69649;53.712;9.680;2023-05-31T06:10:37;6.70;;;4.00;;
7875;SDS011;69649;53.712;9.680;2023-05-31T06:13:03;5.00;;;3.33;;
7875;SDS011;69649;53.712;9.680;2023-05-31T06:15:30;4.60;;;3.17;;
7875;SDS011;69649;53.712;9.680;2023-05-31T06:17:56;4.20;;;3.70;;
7875;SDS011;69649;53.712;9.680;2023-05-31T06:20:21;5.97;;;3.87;;
7875;SDS011;69649;53.712;9.680;2023-05-31T06:22:47;7.63;;;4.70;;
7875;SDS011;69649;53.712;9.680;2023-05-31T06:25:15;6.80;;;4.50;;
7875;SDS011;69649;53.712;9.680;2023-05-31T06:27:43;5.83;;;3.77;;
7875;SDS011;69649;53.712;9.680;2023-05-31T06:30:11;8.90;;;4.67;;
7875;SDS011;69649;53.712;9.680;2023-05-31T06:32:38;4.07;;;3.47;;
7875;SDS011;69649;53.712;9.680;2023-05-31T06:35:04;4.33;;;3.73;;
7875;SDS011;69649;53.712;9.680;2023-05-31T06:37:31;7.47;;;3.23;;
7875;SDS011;69649;53.712;9.680;2023-05-31T06:39:57;5.77;;;4.03;;
7875;SDS011;69649;53.712;9.680;2023-05-31T06:42:24;10.90;;;3.80;;
7875;SDS011;69649;53.712;9.680;2023-05-31T06:44:50;4.20;;;3.80;;
7875;SDS011;69649;53.712;9.680;2023-05-31T06:47:16;5.43;;;4.00;;
7875;SDS011;69649;53.712;9.680;2023-05-31T06:49:42;4.03;;;3.60;;
7875;SDS011;69649;53.712;9.680;2023-05-31T06:52:10;5.23;;;3.97;;
7875;SDS011;69649;53.712;9.680;2023-05-31T06:54:37;7.13;;;4.87;;
7875;SDS011;69649;53.712;9.680;2023-05-31T06:57:03;6.40;;;4.10;;
7875;SDS011;69649;53.712;9.680;2023-05-31T06:59:30;8.47;;;4.23;;
7875;SDS011;69649;53.712;9.680;2023-05-31T07:01:56;7.47;;;4.13;;
7875;SDS011;69649;53.712;9.680;2023-05-31T07:04:22;6.10;;;4.00;;
7875;SDS011;69649;53.712;9.680;2023-05-31T07:06:49;7.43;;;3.53;;
7875;SDS011;69649;53.712;9.680;2023-05-31T07:09:15;4.77;;;3.53;;
7875;SDS011;69649;53.712;9.680;2023-05-31T07:11:42;6.17;;;3.67;;
7875;SDS011;69649;53.712;9.680;2023-05-31T07:14:08;5.73;;;3.97;;
7875;SDS011;69649;53.712;9.680;2023-05-31T07:16:35;6.73;;;3.40;;
7875;SDS011;69649;53.712;9.680;2023-05-31T07:19:01;5.80;;;3.40;;
7875;SDS011;69649;53.712;9.680;2023-05-31T07:21:27;4.90;;;3.90;;
7875;SDS011;69649;53.712;9.680;2023-05-31T07:23:54;7.30;;;3.17;;
7875;SDS011;69649;53.712;9.680;2023-05-31T07:26:21;6.67;;;4.33;;
7875;SDS011;69649;53.712;9.680;2023-05-31T07:28:48;7.33;;;2.60;;
7875;SDS011;69649;53.712;9.680;2023-05-31T07:31:16;5.67;;;3.00;;
7875;SDS011;69649;53.712;9.680;2023-05-31T07:33:42;3.43;;;3.07;;
7875;SDS011;69649;53.712;9.680;2023-05-31T07:36:08;4.07;;;3.23;;
7875;SDS011;69649;53.712;9.680;2023-05-31T07:38:34;3.40;;;2.37;;
7875;SDS011;69649;53.712;9.680;2023-05-31T07:43:25;6.60;;;3.10;;
7875;SDS011;69649;53.712;9.680;2023-05-31T07:45:51;6.90;;;3.07;;
7875;SDS011;69649;53.712;9.680;2023-05-31T07:48:19;4.93;;;3.40;;
7875;SDS011;69649;53.712;9.680;2023-05-31T07:50:46;4.57;;;3.23;;
7875;SDS011;69649;53.712;9.680;2023-05-31T07:53:12;4.60;;;3.10;;
7875;SDS011;69649;53.712;9.680;2023-05-31T07:55:39;3.97;;;2.60;;
7875;SDS011;69649;53.712;9.680;2023-05-31T07:58:04;4.63;;;2.43;;
7875;SDS011;69649;53.712;9.680;2023-05-31T08:00:31;4.73;;;3.00;;
7875;SDS011;69649;53.712;9.680;2023-05-31T08:02:56;5.60;;;2.40;;
7875;SDS011;69649;53.712;9.680;2023-05-31T08:05:22;3.73;;;2.80;;
7875;SDS011;69649;53.712;9.680;2023-05-31T08:07:48;5.50;;;2.40;;
7875;SDS011;69649;53.712;9.680;2023-05-31T08:10:15;3.50;;;2.53;;
7875;SDS011;69649;53.712;9.680;2023-05-31T08:12:41;4.80;;;2.93;;
7875;SDS011;69649;53.712;9.680;2023-05-31T08:15:08;6.03;;;2.93;;
7875;SDS011;69649;53.712;9.680;2023-05-31T08:17:36;4.30;;;2.50;;
7875;SDS011;69649;53.712;9.680;2023-05-31T08:20:02;5.57;;;2.63;;
7875;SDS011;69649;53.712;9.680;2023-05-31T08:22:32;5.43;;;3.40;;
7875;SDS011;69649;53.712;9.680;2023-05-31T08:24:59;5.83;;;2.27;;
7875;SDS011;69649;53.712;9.680;2023-05-31T08:27:25;4.03;;;2.63;;
7875;SDS011;69649;53.712;9.680;2023-05-31T08:29:50;6.40;;;3.13;;
7875;SDS011;69649;53.712;9.680;2023-05-31T08:32:16;6.27;;;3.43;;
7875;SDS011;69649;53.712;9.680;2023-05-31T08:34:43;3.50;;;2.63;;
7875;SDS011;69649;53.712;9.680;2023-05-31T08:37:10;6.00;;;2.93;;
7875;SDS011;69649;53.712;9.680;2023-05-31T08:39:37;10.80;;;3.83;;
7875;SDS011;69649;53.712;9.680;2023-05-31T08:42:04;7.43;;;3.07;;
7875;SDS011;69649;53.712;9.680;2023-05-31T08:44:32;6.73;;;2.97;;
7875;SDS011;69649;53.712;9.680;2023-05-31T08:46:59;7.47;;;2.70;;
7875;SDS011;69649;53.712;9.680;2023-05-31T08:49:39;6.30;;;3.10;;
7875;SDS011;69649;53.712;9.680;2023-05-31T08:52:07;3.17;;;2.70;;
7875;SDS011;69649;53.712;9.680;2023-05-31T08:54:34;6.00;;;3.50;;
7875;SDS011;69649;53.712;9.680;2023-05-31T08:57:01;4.97;;;2.70;;
7875;SDS011;69649;53.712;9.680;2023-05-31T08:59:28;4.17;;;2.07;;
7875;SDS011;69649;53.712;9.680;2023-05-31T09:01:55;5.43;;;2.60;;
7875;SDS011;69649;53.712;9.680;2023-05-31T09:04:23;7.30;;;2.23;;
7875;SDS011;69649;53.712;9.680;2023-05-31T09:06:50;5.00;;;2.73;;
7875;SDS011;69649;53.712;9.680;2023-05-31T09:09:17;4.23;;;2.30;;
7875;SDS011;69649;53.712;9.680;2023-05-31T09:11:44;4.83;;;2.33;;
7875;SDS011;69649;53.712;9.680;2023-05-31T09:14:10;2.60;;;2.40;;
7875;SDS011;69649;53.712;9.680;2023-05-31T09:16:36;4.87;;;2.10;;
7875;SDS011;69649;53.712;9.680;2023-05-31T09:19:03;2.40;;;1.67;;
7875;SDS011;69649;53.712;9.680;2023-05-31T09:21:40;3.70;;;2.10;;
7875;SDS011;69649;53.712;9.680;2023-05-31T09:24:07;4.87;;;3.80;;
7875;SDS011;69649;53.712;9.680;2023-05-31T09:26:34;5.37;;;2.03;;
7875;SDS011;69649;53.712;9.680;2023-05-31T09:29:00;3.90;;;2.00;;
7875;SDS011;69649;53.712;9.680;2023-05-31T09:31:26;2.77;;;2.07;;
7875;SDS011;69649;53.712;9.680;2023-05-31T09:33:53;2.77;;;1.80;;
7875;SDS011;69649;53.712;9.680;2023-05-31T09:36:25;4.37;;;2.73;;
7875;SDS011;69649;53.712;9.680;2023-05-31T09:39:00;2.53;;;1.60;;
7875;SDS011;69649;53.712;9.680;2023-05-31T09:41:26;4.00;;;1.83;;
7875;SDS011;69649;53.712;9.680;2023-05-31T09:43:53;2.80;;;1.73;;
7875;SDS011;69649;53.712;9.680;2023-05-31T09:46:19;5.17;;;2.20;;
7875;SDS011;69649;53.712;9.680;2023-05-31T09:51:28;5.87;;;2.83;;
7875;SDS011;69649;53.712;9.680;2023-05-31T09:54:16;7.17;;;3.33;;
7875;SDS011;69649;53.712;9.680;2023-05-31T09:56:36;6.50;;;3.17;;
7875;SDS011;69649;53.712;9.680;2023-05-31T09:59:04;4.67;;;2.67;;
7875;SDS011;69649;53.712;9.680;2023-05-31T10:01:31;6.00;;;2.90;;
7875;SDS011;69649;53.712;9.680;2023-05-31T10:03:57;4.83;;;2.83;;
7875;SDS011;69649;53.712;9.680;2023-05-31T10:06:24;5.13;;;2.30;;
7875;SDS011;69649;53.712;9.680;2023-05-31T10:08:51;6.40;;;2.50;;
7875;SDS011;69649;53.712;9.680;2023-05-31T10:11:17;5.17;;;2.30;;
7875;SDS011;69649;53.712;9.680;2023-05-31T10:13:49;3.70;;;2.13;;
7875;SDS011;69649;53.712;9.680;2023-05-31T10:16:17;3.10;;;1.70;;
7875;SDS011;69649;53.712;9.680;2023-05-31T10:18:47;2.63;;;1.70;;
7875;SDS011;69649;53.712;9.680;2023-05-31T10:21:20;3.10;;;1.93;;
7875;SDS011;69649;53.712;9.680;2023-05-31T10:23:53;4.83;;;1.90;;
7875;SDS011;69649;53.712;9.680;2023-05-31T10:26:22;5.07;;;2.00;;
7875;SDS011;69649;53.712;9.680;2023-05-31T10:28:55;4.77;;;1.90;;
7875;SDS011;69649;53.712;9.680;2023-05-31T10:31:25;6.07;;;1.70;;
7875;SDS011;69649;53.712;9.680;2023-05-31T10:33:54;2.53;;;2.17;;
7875;SDS011;69649;53.712;9.680;2023-05-31T10:36:23;4.47;;;2.00;;
7875;SDS011;69649;53.712;9.680;2023-05-31T10:38:56;2.50;;;1.97;;
7875;SDS011;69649;53.712;9.680;2023-05-31T10:41:28;5.67;;;2.40;;
7875;SDS011;69649;53.712;9.680;2023-05-31T10:43:58;4.70;;;2.20;;
7875;SDS011;69649;53.712;9.680;2023-05-31T10:46:27;6.07;;;2.50;;
7875;SDS011;69649;53.712;9.680;2023-05-31T10:48:56;4.77;;;1.87;;
7875;SDS011;69649;53.712;9.680;2023-05-31T10:51:42;2.73;;;1.60;;
7875;SDS011;69649;53.712;9.680;2023-05-31T10:54:30;3.57;;;2.33;;
7875;SDS011;69649;53.712;9.680;2023-05-31T10:56:54;4.87;;;1.73;;
7875;SDS011;69649;53.712;9.680;2023-05-31T10:59:27;7.47;;;2.43;;
7875;SDS011;69649;53.712;9.680;2023-05-31T11:01:53;4.83;;;1.97;;
7875;SDS011;69649;53.712;9.680;2023-05-31T11:04:22;3.73;;;1.80;;
7875;SDS011;69649;53.712;9.680;2023-05-31T11:07:09;2.17;;;1.67;;
7875;SDS011;69649;53.712;9.680;2023-05-31T11:09:22;6.53;;;1.97;;
7875;SDS011;69649;53.712;9.680;2023-05-31T11:11:49;7.70;;;2.10;;
7875;SDS011;69649;53.712;9.680;2023-05-31T11:19:30;7.00;;;2.03;;
7875;SDS011;69649;53.712;9.680;2023-05-31T11:22:01;3.07;;;1.87;;
7875;SDS011;69649;53.712;9.680;2023-05-31T11:24:47;3.97;;;2.10;;
7875;SDS011;69649;53.712;9.680;2023-05-31T11:27:18;5.07;;;2.23;;
7875;SDS011;69649;53.712;9.680;2023-05-31T11:32:22;4.97;;;2.70;;
7875;SDS011;69649;53.712;9.680;2023-05-31T11:35:04;3.63;;;1.70;;
7875;SDS011;69649;53.712;9.680;2023-05-31T11:37:33;6.20;;;1.90;;
7875;SDS011;69649;53.712;9.680;2023-05-31T11:40:04;3.67;;;2.10;;
7875;SDS011;69649;53.712;9.680;2023-05-31T11:42:36;3.43;;;2.27;;
7875;SDS011;69649;53.712;9.680;2023-05-31T11:45:06;5.40;;;1.90;;
7875;SDS011;69649;53.712;9.680;2023-05-31T11:47:55;4.93;;;1.77;;
7875;SDS011;69649;53.712;9.680;2023-05-31T11:50:25;4.60;;;1.70;;
7875;SDS011;69649;53.712;9.680;2023-05-31T11:52:51;4.13;;;1.40;;
7875;SDS011;69649;53.712;9.680;2023-05-31T11:55:19;1.83;;;1.20;;
7875;SDS011;69649;53.712;9.680;2023-05-31T11:57:45;4.53;;;1.63;;
7875;SDS011;69649;53.712;9.680;2023-05-31T12:00:14;2.33;;;1.70;;
7875;SDS011;69649;53.712;9.680;2023-05-31T12:02:42;2.97;;;1.23;;
7875;SDS011;69649;53.712;9.680;2023-05-31T12:05:11;1.73;;;1.20;;
7875;SDS011;69649;53.712;9.680;2023-05-31T12:07:37;4.23;;;1.83;;
7875;SDS011;69649;53.712;9.680;2023-05-31T12:10:07;2.23;;;1.40;;
7875;SDS011;69649;53.712;9.680;2023-05-31T12:12:40;5.97;;;1.77;;
7875;SDS011;69649;53.712;9.680;2023-05-31T12:15:06;3.73;;;1.40;;
7875;SDS011;69649;53.712;9.680;2023-05-31T12:17:32;3.47;;;1.50;;
7875;SDS011;69649;53.712;9.680;2023-05-31T12:19:59;3.67;;;1.50;;
7875;SDS011;69649;53.712;9.680;2023-05-31T12:22:26;6.60;;;2.00;;
7875;SDS011;69649;53.712;9.680;2023-05-31T12:24:54;2.90;;;1.80;;
7875;SDS011;69649;53.712;9.680;2023-05-31T12:27:26;1.73;;;1.20;;
7875;SDS011;69649;53.712;9.680;2023-05-31T12:29:50;3.23;;;1.70;;
7875;SDS011;69649;53.712;9.680;2023-05-31T12:32:19;2.40;;;1.43;;
7875;SDS011;69649;53.712;9.680;2023-05-31T12:34:46;4.10;;;1.70;;
7875;SDS011;69649;53.712;9.680;2023-05-31T12:37:12;1.30;;;1.00;;
7875;SDS011;69649;53.712;9.680;2023-05-31T12:39:39;6.47;;;2.23;;
7875;SDS011;69649;53.712;9.680;2023-05-31T12:42:05;3.07;;;2.37;;
7875;SDS011;69649;53.712;9.680;2023-05-31T12:44:31;3.07;;;1.50;;
7875;SDS011;69649;53.712;9.680;2023-05-31T12:47:08;1.57;;;1.47;;
7875;SDS011;69649;53.712;9.680;2023-05-31T12:49:35;2.90;;;1.60;;
7875;SDS011;69649;53.712;9.680;2023-05-31T12:52:03;2.57;;;1.43;;
7875;SDS011;69649;53.712;9.680;2023-05-31T12:54:31;3.47;;;1.57;;
7875;SDS011;69649;53.712;9.680;2023-05-31T12:56:58;4.03;;;2.00;;
7875;SDS011;69649;53.712;9.680;2023-05-31T12:59:26;2.17;;;1.43;;
7875;SDS011;69649;53.712;9.680;2023-05-31T13:01:54;2.23;;;1.30;;
7875;SDS011;69649;53.712;9.680;2023-05-31T13:04:21;2.13;;;1.40;;
7875;SDS011;69649;53.712;9.680;2023-05-31T13:06:47;2.33;;;1.60;;
7875;SDS011;69649;53.712;9.680;2023-05-31T13:09:14;5.30;;;1.77;;
7875;SDS011;69649;53.712;9.680;2023-05-31T13:11:41;6.37;;;2.90;;
7875;SDS011;69649;53.712;9.680;2023-05-31T13:14:08;2.00;;;1.60;;
7875;SDS011;69649;53.712;9.680;2023-05-31T13:16:35;3.80;;;1.63;;
7875;SDS011;69649;53.712;9.680;2023-05-31T13:19:03;4.10;;;1.50;;
7875;SDS011;69649;53.712;9.680;2023-05-31T13:21:30;3.17;;;1.60;;
7875;SDS011;69649;53.712;9.680;2023-05-31T13:23:58;3.93;;;1.80;;
7875;SDS011;69649;53.712;9.680;2023-05-31T13:26:24;3.73;;;1.50;;
7875;SDS011;69649;53.712;9.680;2023-05-31T13:28:55;2.37;;;1.73;;
7875;SDS011;69649;53.712;9.680;2023-05-31T13:31:23;3.97;;;1.70;;
7875;SDS011;69649;53.712;9.680;2023-05-31T13:33:49;2.87;;;1.93;;
7875;SDS011;69649;53.712;9.680;2023-05-31T13:36:16;4.27;;;2.00;;
7875;SDS011;69649;53.712;9.680;2023-05-31T13:38:42;2.70;;;1.40;;
7875;SDS011;69649;53.712;9.680;2023-05-31T13:41:08;5.23;;;2.03;;
7875;SDS011;69649;53.712;9.680;2023-05-31T13:43:34;3.63;;;2.30;;
7875;SDS011;69649;53.712;9.680;2023-05-31T13:46:02;3.40;;;2.47;;
7875;SDS011;69649;53.712;9.680;2023-05-31T13:48:29;4.87;;;2.10;;
7875;SDS011;69649;53.712;9.680;2023-05-31T13:50:55;2.60;;;1.47;;
7875;SDS011;69649;53.712;9.680;2023-05-31T13:53:21;4.33;;;2.00;;
7875;SDS011;69649;53.712;9.680;2023-05-31T13:55:47;8.17;;;2.63;;
7875;SDS011;69649;53.712;9.680;2023-05-31T13:58:13;5.70;;;2.63;;
7875;SDS011;69649;53.712;9.680;2023-05-31T14:00:39;4.07;;;2.03;;
7875;SDS011;69649;53.712;9.680;2023-05-31T14:03:06;3.90;;;2.27;;
7875;SDS011;69649;53.712;9.680;2023-05-31T14:05:32;3.07;;;2.20;;
7875;SDS011;69649;53.712;9.680;2023-05-31T14:07:58;2.30;;;2.00;;
7875;SDS011;69649;53.712;9.680;2023-05-31T14:10:24;2.00;;;1.73;;
7875;SDS011;69649;53.712;9.680;2023-05-31T14:12:50;7.17;;;2.10;;
7875;SDS011;69649;53.712;9.680;2023-05-31T14:15:16;7.00;;;2.10;;
7875;SDS011;69649;53.712;9.680;2023-05-31T14:17:43;2.67;;;1.80;;
7875;SDS011;69649;53.712;9.680;2023-05-31T14:20:09;3.80;;;2.10;;
7875;SDS011;69649;53.712;9.680;2023-05-31T14:22:36;3.47;;;1.60;;
7875;SDS011;69649;53.712;9.680;2023-05-31T14:25:02;7.10;;;2.40;;
7875;SDS011;69649;53.712;9.680;2023-05-31T14:27:29;9.73;;;2.37;;
7875;SDS011;69649;53.712;9.680;2023-05-31T14:29:55;5.50;;;2.50;;
7875;SDS011;69649;53.712;9.680;2023-05-31T14:32:21;4.70;;;2.00;;
7875;SDS011;69649;53.712;9.680;2023-05-31T14:34:46;3.50;;;2.53;;
7875;SDS011;69649;53.712;9.680;2023-05-31T14:37:12;4.00;;;3.03;;
7875;SDS011;69649;53.712;9.680;2023-05-31T14:39:38;3.93;;;2.07;;
7875;SDS011;69649;53.712;9.680;2023-05-31T14:42:04;3.73;;;2.50;;
7875;SDS011;69649;53.712;9.680;2023-05-31T14:44:31;2.40;;;2.17;;
7875;SDS011;69649;53.712;9.680;2023-05-31T14:46:58;3.73;;;3.27;;
7875;SDS011;69649;53.712;9.680;2023-05-31T14:49:24;5.97;;;3.80;;
7875;SDS011;69649;53.712;9.680;2023-05-31T14:51:49;4.13;;;3.43;;
7875;SDS011;69649;53.712;9.680;2023-05-31T14:54:20;4.43;;;2.60;;
7875;SDS011;69649;53.712;9.680;2023-05-31T14:56:43;5.37;;;2.23;;
7875;SDS011;69649;53.712;9.680;2023-05-31T14:59:10;4.60;;;3.00;;
7875;SDS011;69649;53.712;9.680;2023-05-31T15:01:37;4.77;;;2.90;;
7875;SDS011;69649;53.712;9.680;2023-05-31T15:04:09;4.30;;;2.50;;
7875;SDS011;69649;53.712;9.680;2023-05-31T15:06:36;3.63;;;2.40;;
7875;SDS011;69649;53.712;9.680;2023-05-31T15:09:02;6.30;;;3.30;;
7875;SDS011;69649;53.712;9.680;2023-05-31T15:11:28;3.80;;;2.50;;
7875;SDS011;69649;53.712;9.680;2023-05-31T15:16:34;4.70;;;2.85;;
7875;SDS011;69649;53.712;9.680;2023-05-31T15:19:01;3.12;;;2.83;;